createdAt,value
2016-11-24T00:00:56.444Z,29.2
2016-11-24T00:01:56.501Z,29.2
2016-11-24T00:02:56.706Z,29.2
2016-11-24T00:03:56.633Z,29.2
2016-11-24T00:04:51.536Z,29.1
2016-11-24T00:05:51.518Z,29.1
2016-11-24T00:06:56.902Z,29.1
2016-11-24T00:07:51.560Z,29.1
2016-11-24T00:08:56.951Z,29.1
2016-11-24T00:09:51.774Z,29.1
2016-11-24T00:10:56.898Z,29.2
2016-11-24T00:11:52.503Z,29.2
2016-11-24T00:12:51.802Z,29.2
2016-11-24T00:13:57.209Z,29.2
2016-11-24T00:14:51.995Z,29.2
2016-11-24T00:15:57.121Z,29.2
2016-11-24T00:16:57.194Z,29.2
2016-11-24T00:17:52.137Z,29.2
2016-11-24T00:18:52.173Z,29.2
2016-11-24T00:19:57.299Z,29.2
2016-11-24T00:20:52.298Z,29.2
2016-11-24T00:21:57.448Z,29.2
2016-11-24T00:22:52.168Z,29.2
2016-11-24T00:23:57.482Z,29.1
2016-11-24T00:24:52.205Z,29.1
2016-11-24T00:25:57.605Z,29.1
2016-11-24T00:26:57.639Z,29.2
2016-11-24T00:27:52.284Z,29.1
2016-11-24T00:28:52.472Z,29.1
2016-11-24T00:29:57.708Z,29.1
2016-11-24T00:30:57.867Z,29.1
2016-11-24T00:31:52.650Z,29.1
2016-11-24T00:32:52.655Z,29.1
2016-11-24T00:33:57.974Z,29.1
2016-11-24T00:34:52.749Z,29.1
2016-11-24T00:35:52.739Z,29.1
2016-11-24T00:36:58.028Z,29.1
2016-11-24T00:37:52.812Z,29.1
2016-11-24T00:38:52.808Z,29.1
2016-11-24T00:39:52.904Z,29.1
2016-11-24T00:40:58.313Z,29.1
2016-11-24T00:41:53.024Z,29.1
2016-11-24T00:42:53.203Z,29.1
2016-11-24T00:43:53.159Z,29.1
2016-11-24T00:44:53.202Z,29.1
2016-11-24T00:45:58.686Z,29.1
2016-11-24T00:46:53.287Z,29.1
2016-11-24T00:47:53.331Z,29.1
2016-11-24T00:48:53.361Z,29.1
2016-11-24T00:49:53.413Z,29.1
2016-11-24T00:50:53.418Z,29.1
2016-11-24T00:51:58.767Z,29.1
2016-11-24T00:52:58.746Z,29.1
2016-11-24T00:53:58.899Z,29.1
2016-11-24T00:54:53.740Z,29.1
2016-11-24T00:55:53.660Z,29.1
2016-11-24T00:56:59.021Z,29.1
2016-11-24T00:57:59.249Z,29.1
2016-11-24T00:58:53.888Z,29.1
2016-11-24T00:59:53.948Z,29.1
2016-11-24T01:00:53.954Z,29.1
2016-11-24T01:01:59.219Z,29.1
2016-11-24T01:02:54.017Z,29.1
2016-11-24T01:03:54.041Z,29.1
2016-11-24T01:04:59.367Z,29.1
2016-11-24T01:05:59.520Z,29.1
2016-11-24T01:06:59.617Z,29.1
2016-11-24T01:07:54.401Z,29.1
2016-11-24T01:08:54.291Z,29.1
2016-11-24T01:09:59.601Z,29.1
2016-11-24T01:10:54.502Z,29.1
2016-11-24T01:11:54.611Z,29.1
2016-11-24T01:12:59.757Z,29.1
2016-11-24T01:13:59.792Z,29.1
2016-11-24T01:14:54.519Z,29.1
2016-11-24T01:15:59.932Z,29.1
2016-11-24T01:16:54.567Z,29.1
2016-11-24T01:17:54.763Z,29.1
2016-11-24T01:19:00.006Z,29.1
2016-11-24T01:20:00.057Z,29.1
2016-11-24T01:21:00.045Z,29.1
2016-11-24T01:22:00.189Z,29.1
2016-11-24T01:23:00.225Z,29.1
2016-11-24T01:23:55.002Z,29.1
2016-11-24T01:25:00.168Z,29.1
2016-11-24T01:25:55.086Z,29.1
2016-11-24T01:27:00.329Z,29.1
2016-11-24T01:27:55.692Z,29.1
2016-11-24T01:28:55.122Z,29.1
2016-11-24T01:29:55.168Z,29.1
2016-11-24T01:30:55.209Z,29.1
2016-11-24T01:31:55.248Z,29.1
2016-11-24T01:33:00.648Z,29.1
2016-11-24T01:33:55.411Z,29.1
2016-11-24T01:34:55.398Z,29.1
2016-11-24T01:36:00.728Z,29.1
2016-11-24T01:37:00.789Z,29.1
2016-11-24T01:38:01.033Z,29.1
2016-11-24T01:38:55.657Z,29.1
2016-11-24T01:39:55.717Z,29.1
2016-11-24T01:41:01.052Z,29.1
2016-11-24T01:42:01.267Z,29.1
2016-11-24T01:42:55.949Z,29.1
2016-11-24T01:44:01.364Z,29.1
2016-11-24T01:44:56.007Z,29.1
2016-11-24T01:46:01.329Z,29.1
2016-11-24T01:47:01.401Z,29.1
2016-11-24T01:48:01.384Z,29.1
2016-11-24T01:49:01.454Z,29.1
2016-11-24T01:49:56.321Z,29
2016-11-24T01:51:01.587Z,29
2016-11-24T01:52:01.606Z,29
2016-11-24T01:52:56.351Z,29
2016-11-24T01:53:57.126Z,29
2016-11-24T01:55:01.778Z,29.1
2016-11-24T01:55:56.598Z,29.1
2016-11-24T01:57:02.019Z,29.1
2016-11-24T01:57:56.637Z,29.1
2016-11-24T01:58:56.696Z,29.1
2016-11-24T01:59:56.740Z,29.1
2016-11-24T02:01:02.054Z,29.1
2016-11-24T02:01:56.967Z,29.1
2016-11-24T02:02:56.869Z,29.1
2016-11-24T02:03:56.882Z,29.1
2016-11-24T02:05:02.313Z,29.1
2016-11-24T02:06:02.265Z,29.1
2016-11-24T02:06:57.267Z,29.1
2016-11-24T02:07:57.209Z,29.1
2016-11-24T02:09:02.577Z,29.1
2016-11-24T02:09:57.178Z,29.1
2016-11-24T02:10:57.188Z,29.1
2016-11-24T02:12:02.665Z,29.1
2016-11-24T02:12:57.574Z,29.1
2016-11-24T02:13:57.477Z,29.1
2016-11-24T02:15:02.847Z,29.1
2016-11-24T02:16:02.778Z,29.1
2016-11-24T02:16:57.573Z,29.1
2016-11-24T02:18:02.840Z,29.1
2016-11-24T02:18:57.852Z,29.1
2016-11-24T02:20:03.056Z,29.1
2016-11-24T02:21:03.063Z,29.1
2016-11-24T02:22:03.006Z,29.1
2016-11-24T02:22:57.814Z,29.1
2016-11-24T02:24:03.252Z,29
2016-11-24T02:25:03.326Z,29
2016-11-24T02:25:58.251Z,29
2016-11-24T02:27:03.455Z,29
2016-11-24T02:28:03.429Z,29
2016-11-24T02:29:03.556Z,29
2016-11-24T02:29:58.408Z,29
2016-11-24T02:31:03.666Z,29
2016-11-24T02:31:58.366Z,29
2016-11-24T02:32:58.678Z,29
2016-11-24T02:33:58.436Z,29
2016-11-24T02:34:58.626Z,29
2016-11-24T02:36:03.878Z,29
2016-11-24T02:36:58.853Z,29
2016-11-24T02:38:04.046Z,29
2016-11-24T02:39:04.356Z,29
2016-11-24T02:40:04.302Z,29
2016-11-24T02:40:58.953Z,29
2016-11-24T02:42:04.257Z,29
2016-11-24T02:42:59.355Z,29
2016-11-24T02:43:59.310Z,29
2016-11-24T02:45:04.732Z,29
2016-11-24T02:46:04.581Z,29
2016-11-24T02:47:04.686Z,29
2016-11-24T02:48:04.760Z,29
2016-11-24T02:48:59.364Z,29
2016-11-24T02:49:59.417Z,29
2016-11-24T02:51:04.821Z,29
2016-11-24T02:52:04.814Z,29
2016-11-24T02:52:59.573Z,29
2016-11-24T02:53:59.638Z,29
2016-11-24T02:55:05.074Z,29
2016-11-24T02:55:59.853Z,29
2016-11-24T02:56:59.737Z,29
2016-11-24T02:58:05.143Z,29
2016-11-24T02:58:59.947Z,29
2016-11-24T03:00:05.299Z,29
2016-11-24T03:01:06.003Z,29
2016-11-24T03:02:00.728Z,29
2016-11-24T03:03:05.975Z,29
2016-11-24T03:04:00.086Z,29
2016-11-24T03:05:05.532Z,29
2016-11-24T03:06:00.416Z,29
2016-11-24T03:07:05.723Z,29
2016-11-24T03:08:00.517Z,29
2016-11-24T03:09:01.939Z,29
2016-11-24T03:10:02.743Z,29
2016-11-24T03:11:06.428Z,29
2016-11-24T03:12:01.593Z,29
2016-11-24T03:13:00.769Z,29
2016-11-24T03:14:06.066Z,29
2016-11-24T03:15:01.443Z,29
2016-11-24T03:16:06.089Z,29
2016-11-24T03:17:01.711Z,29
2016-11-24T03:18:06.198Z,29
2016-11-24T03:19:02.273Z,29
2016-11-24T03:20:06.474Z,29
2016-11-24T03:21:01.909Z,29
2016-11-24T03:22:01.416Z,29
2016-11-24T03:23:07.341Z,29
2016-11-24T03:24:06.777Z,29
2016-11-24T03:25:06.623Z,29
2016-11-24T03:26:06.741Z,29
2016-11-24T03:27:06.770Z,29
2016-11-24T03:28:06.844Z,29
2016-11-24T03:29:02.573Z,29
2016-11-24T03:30:06.975Z,29
2016-11-24T03:31:07.161Z,29
2016-11-24T03:32:01.809Z,29
2016-11-24T03:33:07.219Z,29
2016-11-24T03:34:02.070Z,29
2016-11-24T03:35:02.221Z,29
2016-11-24T03:36:07.228Z,29
2016-11-24T03:37:01.955Z,29
2016-11-24T03:38:07.221Z,29
2016-11-24T03:39:02.067Z,29
2016-11-24T03:40:02.214Z,29
2016-11-24T03:41:02.151Z,29
2016-11-24T03:42:02.172Z,29
2016-11-24T03:43:02.229Z,29
2016-11-24T03:44:07.469Z,29
2016-11-24T03:45:02.296Z,29
2016-11-24T03:46:02.343Z,29
2016-11-24T03:47:02.220Z,29
2016-11-24T03:48:02.400Z,29
2016-11-24T03:49:02.518Z,29
2016-11-24T03:50:07.671Z,29
2016-11-24T03:51:07.812Z,29
2016-11-24T03:52:07.757Z,29
2016-11-24T03:53:07.910Z,29
2016-11-24T03:54:02.625Z,29
2016-11-24T03:55:02.739Z,29
2016-11-24T03:56:08.172Z,29
2016-11-24T03:57:02.837Z,29
2016-11-24T03:58:02.864Z,29
2016-11-24T03:59:08.313Z,29
2016-11-24T04:00:08.311Z,29
2016-11-24T04:01:08.368Z,29
2016-11-24T04:02:08.304Z,29
2016-11-24T04:03:08.474Z,29
2016-11-24T04:04:08.384Z,29
2016-11-24T04:05:08.564Z,29
2016-11-24T04:06:03.215Z,29
2016-11-24T04:07:08.504Z,29
2016-11-24T04:08:08.500Z,29
2016-11-24T04:09:03.355Z,28.9
2016-11-24T04:10:08.745Z,29
2016-11-24T04:11:08.756Z,29
2016-11-24T04:12:03.423Z,28.9
2016-11-24T04:13:03.443Z,29
2016-11-24T04:14:08.710Z,29
2016-11-24T04:15:08.982Z,29
2016-11-24T04:16:08.845Z,29
2016-11-24T04:17:08.977Z,29
2016-11-24T04:18:08.906Z,28.9
2016-11-24T04:19:03.714Z,29
2016-11-24T04:20:03.743Z,29
2016-11-24T04:21:09.074Z,29
2016-11-24T04:22:09.209Z,28.9
2016-11-24T04:23:09.067Z,28.9
2016-11-24T04:24:04.000Z,28.9
2016-11-24T04:25:09.370Z,28.9
2016-11-24T04:26:04.136Z,28.9
2016-11-24T04:27:09.258Z,28.9
2016-11-24T04:28:03.969Z,28.9
2016-11-24T04:29:04.156Z,28.9
2016-11-24T04:30:09.358Z,28.9
2016-11-24T04:31:09.415Z,28.9
2016-11-24T04:32:09.486Z,28.9
2016-11-24T04:33:04.268Z,28.9
2016-11-24T04:34:04.379Z,28.9
2016-11-24T04:35:09.547Z,28.9
2016-11-24T04:36:09.659Z,28.9
2016-11-24T04:37:04.467Z,28.9
2016-11-24T04:38:09.623Z,29
2016-11-24T04:39:04.430Z,29
2016-11-24T04:40:09.742Z,29
2016-11-24T04:41:04.556Z,29
2016-11-24T04:42:04.588Z,29
2016-11-24T04:43:04.616Z,29
2016-11-24T04:44:04.627Z,29
2016-11-24T04:45:10.009Z,29
2016-11-24T04:46:09.961Z,29
2016-11-24T04:47:10.066Z,29
2016-11-24T04:48:10.056Z,29
2016-11-24T04:49:10.245Z,29
2016-11-24T04:50:04.921Z,29
2016-11-24T04:51:04.943Z,29
2016-11-24T04:52:05.088Z,29
2016-11-24T04:53:05.210Z,29
2016-11-24T04:54:05.182Z,29
2016-11-24T04:55:10.410Z,29
2016-11-24T04:56:05.324Z,29
2016-11-24T04:57:10.531Z,29
2016-11-24T04:58:10.710Z,29
2016-11-24T04:59:05.519Z,29
2016-11-24T05:00:10.673Z,29
2016-11-24T05:01:10.740Z,29
2016-11-24T05:02:05.673Z,29
2016-11-24T05:03:05.760Z,29
2016-11-24T05:04:11.094Z,29
2016-11-24T05:05:06.602Z,29
2016-11-24T05:06:11.147Z,29
2016-11-24T05:07:11.071Z,29
2016-11-24T05:08:11.148Z,29
2016-11-24T05:09:11.290Z,29
2016-11-24T05:10:11.264Z,29
2016-11-24T05:11:11.445Z,29
2016-11-24T05:12:11.554Z,29
2016-11-24T05:13:06.156Z,29
2016-11-24T05:14:11.566Z,29
2016-11-24T05:15:06.371Z,29
2016-11-24T05:16:11.657Z,29
2016-11-24T05:17:11.802Z,29
2016-11-24T05:18:11.892Z,29
2016-11-24T05:19:12.000Z,29
2016-11-24T05:20:06.754Z,29
2016-11-24T05:21:06.851Z,29
2016-11-24T05:22:06.783Z,29
2016-11-24T05:23:12.150Z,29
2016-11-24T05:24:06.933Z,29
2016-11-24T05:25:07.095Z,29
2016-11-24T05:26:07.052Z,29
2016-11-24T05:27:12.426Z,29
2016-11-24T05:28:12.427Z,29
2016-11-24T05:29:07.267Z,29
2016-11-24T05:30:07.124Z,29
2016-11-24T05:31:07.128Z,29
2016-11-24T05:32:12.431Z,29
2016-11-24T05:33:07.224Z,29
2016-11-24T05:34:12.629Z,29
2016-11-24T05:35:07.573Z,29
2016-11-24T05:36:12.788Z,29
2016-11-24T05:37:12.870Z,29
2016-11-24T05:38:12.903Z,29
2016-11-24T05:39:12.846Z,29
2016-11-24T05:40:07.748Z,29
2016-11-24T05:41:07.665Z,29
2016-11-24T05:42:07.707Z,29
2016-11-24T05:43:07.836Z,29
2016-11-24T05:44:13.060Z,29
2016-11-24T05:45:07.979Z,28.9
2016-11-24T05:46:07.867Z,28.9
2016-11-24T05:47:13.286Z,28.9
2016-11-24T05:48:08.050Z,28.9
2016-11-24T05:49:08.828Z,28.9
2016-11-24T05:50:08.058Z,28.9
2016-11-24T05:51:13.448Z,28.9
2016-11-24T05:52:13.374Z,28.9
2016-11-24T05:53:08.189Z,28.9
2016-11-24T05:54:08.328Z,28.9
2016-11-24T05:55:13.525Z,28.9
2016-11-24T05:56:13.574Z,28.9
2016-11-24T05:57:08.347Z,28.9
2016-11-24T05:58:08.470Z,28.9
2016-11-24T05:59:13.754Z,28.9
2016-11-24T06:00:13.974Z,28.9
2016-11-24T06:01:08.788Z,28.9
2016-11-24T06:02:08.754Z,28.9
2016-11-24T06:03:08.836Z,28.9
2016-11-24T06:04:08.865Z,28.9
2016-11-24T06:05:09.043Z,29
2016-11-24T06:06:14.175Z,29
2016-11-24T06:07:14.348Z,29
2016-11-24T06:08:14.401Z,29.1
2016-11-24T06:09:09.243Z,29.1
2016-11-24T06:10:09.256Z,29.1
2016-11-24T06:11:14.511Z,29.2
2016-11-24T06:12:09.179Z,29.2
2016-11-24T06:13:09.270Z,29.2
2016-11-24T06:14:14.547Z,29.2
2016-11-24T06:15:09.317Z,29.2
2016-11-24T06:16:09.441Z,29.2
2016-11-24T06:17:12.206Z,29.2
2016-11-24T06:18:14.862Z,29.2
2016-11-24T06:19:14.758Z,29.2
2016-11-24T06:20:14.888Z,29.2
2016-11-24T06:21:09.755Z,29.2
2016-11-24T06:22:09.655Z,29.3
2016-11-24T06:23:09.854Z,29.3
2016-11-24T06:24:09.962Z,29.3
2016-11-24T06:25:10.008Z,29.3
2016-11-24T06:26:10.061Z,29.3
2016-11-24T06:27:15.416Z,29.3
2016-11-24T06:28:15.442Z,29.4
2016-11-24T06:29:15.415Z,29.4
2016-11-24T06:30:15.348Z,29.4
2016-11-24T06:31:15.390Z,29.4
2016-11-24T06:32:10.188Z,29.4
2016-11-24T06:33:10.441Z,29.4
2016-11-24T06:34:15.753Z,29.4
2016-11-24T06:35:15.832Z,29.4
2016-11-24T06:36:15.885Z,29.5
2016-11-24T06:37:10.765Z,29.5
2016-11-24T06:38:15.848Z,29.5
2016-11-24T06:39:10.821Z,29.5
2016-11-24T06:40:10.764Z,29.5
2016-11-24T06:41:10.652Z,29.5
2016-11-24T06:42:15.993Z,29.5
2016-11-24T06:43:16.176Z,29.5
2016-11-24T06:44:10.853Z,29.6
2016-11-24T06:45:11.117Z,29.6
2016-11-24T06:46:16.239Z,29.6
2016-11-24T06:47:11.182Z,29.6
2016-11-24T06:48:11.005Z,29.6
2016-11-24T06:49:11.090Z,29.7
2016-11-24T06:50:11.161Z,29.7
2016-11-24T06:51:16.608Z,29.6
2016-11-24T06:52:11.288Z,29.6
2016-11-24T06:53:11.925Z,29.6
2016-11-24T06:54:11.328Z,29.6
2016-11-24T06:55:11.510Z,29.6
2016-11-24T06:56:16.776Z,29.6
2016-11-24T06:57:16.874Z,29.6
2016-11-24T06:58:11.699Z,29.6
2016-11-24T06:59:16.898Z,29.6
2016-11-24T07:00:16.962Z,29.6
2016-11-24T07:01:11.687Z,29.7
2016-11-24T07:02:16.990Z,29.7
2016-11-24T07:03:17.111Z,29.7
2016-11-24T07:04:17.166Z,29.7
2016-11-24T07:05:17.206Z,29.8
2016-11-24T07:06:17.210Z,29.8
2016-11-24T07:07:17.237Z,29.8
2016-11-24T07:08:17.312Z,29.8
2016-11-24T07:09:17.282Z,29.8
2016-11-24T07:10:18.218Z,29.8
2016-11-24T07:11:17.512Z,29.9
2016-11-24T07:12:12.415Z,29.9
2016-11-24T07:13:12.248Z,29.9
2016-11-24T07:14:17.712Z,29.9
2016-11-24T07:15:13.043Z,29.9
2016-11-24T07:16:12.595Z,29.9
2016-11-24T07:17:18.446Z,29.9
2016-11-24T07:18:12.582Z,29.9
2016-11-24T07:19:12.650Z,30
2016-11-24T07:20:17.950Z,30
2016-11-24T07:21:17.901Z,29.9
2016-11-24T07:22:12.703Z,30
2016-11-24T07:23:17.931Z,29.9
2016-11-24T07:24:18.139Z,30
2016-11-24T07:25:13.362Z,30
2016-11-24T07:26:18.285Z,30
2016-11-24T07:27:18.785Z,30
2016-11-24T07:28:18.320Z,30
2016-11-24T07:29:19.320Z,30
2016-11-24T07:30:13.161Z,30
2016-11-24T07:31:14.966Z,30.1
2016-11-24T07:32:15.887Z,30.1
2016-11-24T07:33:20.820Z,30.1
2016-11-24T07:34:18.668Z,30.1
2016-11-24T07:35:13.453Z,30.1
2016-11-24T07:36:13.643Z,30.1
2016-11-24T07:37:18.813Z,30.1
2016-11-24T07:38:19.606Z,30.2
2016-11-24T07:39:18.948Z,30.2
2016-11-24T07:40:14.405Z,30.2
2016-11-24T07:41:13.755Z,30.3
2016-11-24T07:42:13.800Z,30.3
2016-11-24T07:43:19.280Z,30.3
2016-11-24T07:44:19.287Z,30.3
2016-11-24T07:45:14.038Z,30.4
2016-11-24T07:46:14.063Z,30.4
2016-11-24T07:47:19.269Z,30.4
2016-11-24T07:48:14.055Z,30.4
2016-11-24T07:49:19.396Z,30.5
2016-11-24T07:50:14.140Z,30.5
2016-11-24T07:51:20.024Z,30.5
2016-11-24T07:52:14.411Z,30.5
2016-11-24T07:53:15.188Z,30.2
2016-11-24T07:54:19.879Z,30
2016-11-24T07:55:15.818Z,29.8
2016-11-24T07:56:14.672Z,29.5
2016-11-24T07:57:14.790Z,29.3
2016-11-24T07:58:20.700Z,29
2016-11-24T07:59:20.168Z,28.8
2016-11-24T08:00:21.518Z,28.7
2016-11-24T08:01:20.184Z,28.5
2016-11-24T08:02:14.931Z,28.4
2016-11-24T08:03:16.583Z,28.2
2016-11-24T08:04:20.441Z,28.1
2016-11-24T08:05:21.794Z,28
2016-11-24T08:06:23.392Z,27.9
2016-11-24T08:07:17.462Z,27.9
2016-11-24T08:08:24.441Z,27.8
2016-11-24T08:09:16.162Z,27.7
2016-11-24T08:10:15.734Z,27.8
2016-11-24T08:11:20.799Z,27.9
2016-11-24T08:12:22.711Z,28
2016-11-24T08:13:21.029Z,28.2
2016-11-24T08:14:21.667Z,28.4
2016-11-24T08:15:22.994Z,28.5
2016-11-24T08:16:21.756Z,28.7
2016-11-24T08:17:21.171Z,28.8
2016-11-24T08:18:21.308Z,29
2016-11-24T08:19:17.786Z,29.1
2016-11-24T08:20:17.274Z,29.2
2016-11-24T08:21:21.884Z,29.3
2016-11-24T08:22:21.845Z,29.4
2016-11-24T08:23:21.804Z,29.5
2016-11-24T08:24:22.424Z,29.6
2016-11-24T08:25:16.684Z,29.7
2016-11-24T08:26:16.876Z,29.8
2016-11-24T08:27:16.541Z,29.8
2016-11-24T08:28:22.579Z,29.9
2016-11-24T08:29:17.426Z,30
2016-11-24T08:30:16.254Z,30.1
2016-11-24T08:31:21.552Z,30.1
2016-11-24T08:32:17.179Z,30.2
2016-11-24T08:33:21.820Z,30.3
2016-11-24T08:34:18.555Z,30.3
2016-11-24T08:35:24.447Z,30.4
2016-11-24T08:36:21.870Z,30.4
2016-11-24T08:37:22.687Z,30.4
2016-11-24T08:38:16.820Z,30.5
2016-11-24T08:39:18.120Z,30.5
2016-11-24T08:40:22.203Z,30.5
2016-11-24T08:41:22.991Z,30.6
2016-11-24T08:42:18.384Z,30.6
2016-11-24T08:43:21.874Z,30.6
2016-11-24T08:44:23.749Z,30.7
2016-11-24T08:45:16.908Z,30.7
2016-11-24T08:46:22.391Z,30.7
2016-11-24T08:47:23.383Z,30.7
2016-11-24T08:48:22.541Z,30.8
2016-11-24T08:49:23.564Z,30.8
2016-11-24T08:50:17.952Z,30.8
2016-11-24T08:51:18.637Z,30.8
2016-11-24T08:52:19.307Z,30.8
2016-11-24T08:53:18.099Z,30.9
2016-11-24T08:54:24.131Z,30.9
2016-11-24T08:55:22.786Z,30.9
2016-11-24T08:56:24.878Z,30.9
2016-11-24T08:57:29.253Z,31
2016-11-24T08:58:19.836Z,31
2016-11-24T08:59:36.333Z,31
2016-11-24T09:00:17.702Z,31
2016-11-24T09:01:18.643Z,31
2016-11-24T09:02:18.684Z,31
2016-11-24T09:03:23.892Z,31
2016-11-24T09:04:26.550Z,31
2016-11-24T09:05:18.070Z,31
2016-11-24T09:06:20.478Z,31
2016-11-24T09:07:18.849Z,31
2016-11-24T09:08:26.655Z,31.1
2016-11-24T09:09:23.501Z,31.1
2016-11-24T09:10:24.943Z,31.1
2016-11-24T09:11:19.034Z,31.1
2016-11-24T09:12:25.139Z,31.1
2016-11-24T09:13:20.408Z,31.2
2016-11-24T09:14:27.982Z,31.2
2016-11-24T09:15:25.931Z,31.2
2016-11-24T09:16:26.329Z,31.1
2016-11-24T09:17:19.654Z,31.1
2016-11-24T09:18:25.242Z,31.1
2016-11-24T09:19:18.844Z,31.1
2016-11-24T09:20:28.542Z,31.2
2016-11-24T09:21:28.199Z,31.2
2016-11-24T09:22:19.469Z,31.2
2016-11-24T09:23:18.887Z,31.2
2016-11-24T09:24:24.166Z,31.2
2016-11-24T09:25:19.104Z,31.2
2016-11-24T09:26:19.873Z,31.3
2016-11-24T09:27:24.382Z,31.3
2016-11-24T09:28:19.082Z,31.3
2016-11-24T09:29:27.311Z,31.3
2016-11-24T09:30:24.545Z,31.3
2016-11-24T09:31:20.321Z,31.3
2016-11-24T09:32:20.814Z,31.3
2016-11-24T09:33:19.394Z,31.3
2016-11-24T09:34:20.636Z,31.3
2016-11-24T09:35:26.538Z,31.2
2016-11-24T09:36:19.664Z,31.3
2016-11-24T09:37:24.861Z,31.2
2016-11-24T09:38:19.762Z,31.2
2016-11-24T09:39:20.809Z,31.3
2016-11-24T09:40:25.298Z,31.3
2016-11-24T09:41:25.705Z,31.3
2016-11-24T09:42:20.052Z,31.2
2016-11-24T09:43:26.703Z,31.2
2016-11-24T09:44:25.928Z,31.2
2016-11-24T09:45:19.970Z,31.2
2016-11-24T09:46:27.070Z,31.3
2016-11-24T09:47:20.673Z,31.3
2016-11-24T09:48:27.498Z,31.3
2016-11-24T09:49:27.579Z,31.3
2016-11-24T09:50:26.993Z,31.3
2016-11-24T09:51:20.390Z,31.3
2016-11-24T09:52:28.716Z,31.3
2016-11-24T09:53:21.642Z,31.3
2016-11-24T09:54:25.773Z,31.3
2016-11-24T09:55:22.376Z,31.4
2016-11-24T09:56:20.468Z,31.4
2016-11-24T09:57:25.952Z,31.4
2016-11-24T09:58:26.721Z,31.4
2016-11-24T09:59:23.033Z,31.5
2016-11-24T10:00:30.061Z,31.5
2016-11-24T10:01:23.534Z,31.5
2016-11-24T10:02:24.853Z,31.5
2016-11-24T10:03:30.521Z,31.5
2016-11-24T10:04:28.749Z,31.5
2016-11-24T10:05:24.031Z,31.5
2016-11-24T10:06:27.784Z,31.5
2016-11-24T10:07:26.482Z,31.5
2016-11-24T10:08:21.621Z,31.5
2016-11-24T10:09:21.173Z,31.5
2016-11-24T10:10:26.650Z,31.5
2016-11-24T10:11:27.284Z,31.5
2016-11-24T10:12:28.570Z,31.6
2016-11-24T10:13:22.167Z,31.6
2016-11-24T10:14:28.288Z,31.6
2016-11-24T10:15:21.521Z,31.6
2016-11-24T10:16:24.765Z,31.6
2016-11-24T10:17:29.043Z,31.6
2016-11-24T10:18:28.005Z,31.6
2016-11-24T10:19:27.000Z,31.7
2016-11-24T10:20:22.169Z,31.7
2016-11-24T10:21:23.567Z,31.7
2016-11-24T10:22:24.293Z,31.7
2016-11-24T10:23:24.512Z,31.6
2016-11-24T10:24:30.458Z,31.4
2016-11-24T10:25:29.042Z,31.2
2016-11-24T10:26:29.771Z,31
2016-11-24T10:27:22.057Z,30.7
2016-11-24T10:28:30.024Z,30.5
2016-11-24T10:29:27.909Z,30.3
2016-11-24T10:30:27.359Z,30.2
2016-11-24T10:31:24.322Z,30.1
2016-11-24T10:32:24.269Z,30
2016-11-24T10:33:23.479Z,30
2016-11-24T10:34:26.679Z,29.9
2016-11-24T10:35:30.990Z,29.7
2016-11-24T10:36:29.090Z,29.6
2016-11-24T10:37:29.953Z,29.5
2016-11-24T10:38:24.920Z,29.4
2016-11-24T10:39:24.350Z,29.3
2016-11-24T10:40:23.391Z,29.1
2016-11-24T10:41:28.412Z,29
2016-11-24T10:42:27.838Z,29
2016-11-24T10:43:23.294Z,28.9
2016-11-24T10:44:24.019Z,28.9
2016-11-24T10:45:23.306Z,28.9
2016-11-24T10:46:23.650Z,28.9
2016-11-24T10:47:28.714Z,28.8
2016-11-24T10:48:28.846Z,28.8
2016-11-24T10:49:31.399Z,28.8
2016-11-24T10:50:30.173Z,28.8
2016-11-24T10:51:29.635Z,28.8
2016-11-24T10:52:31.339Z,28.8
2016-11-24T10:53:23.246Z,28.8
2016-11-24T10:54:25.999Z,28.7
2016-11-24T10:55:23.923Z,28.6
2016-11-24T10:56:26.118Z,28.5
2016-11-24T10:57:24.161Z,28.5
2016-11-24T10:58:25.425Z,28.4
2016-11-24T10:59:36.566Z,28.4
2016-11-24T11:00:31.482Z,28.3
2016-11-24T11:01:30.296Z,28.2
2016-11-24T11:02:30.324Z,28.1
2016-11-24T11:03:25.312Z,28.1
2016-11-24T11:04:23.773Z,28
2016-11-24T11:05:32.276Z,28
2016-11-24T11:06:32.690Z,28
2016-11-24T11:07:30.320Z,27.9
2016-11-24T11:08:31.123Z,27.9
2016-11-24T11:09:30.649Z,27.9
2016-11-24T11:10:32.345Z,27.9
2016-11-24T11:11:30.144Z,27.9
2016-11-24T11:12:31.750Z,27.9
2016-11-24T11:13:32.045Z,27.8
2016-11-24T11:14:32.771Z,27.8
2016-11-24T11:15:27.319Z,27.8
2016-11-24T11:16:30.911Z,27.7
2016-11-24T11:17:29.681Z,27.7
2016-11-24T11:18:25.110Z,27.7
2016-11-24T11:19:30.526Z,27.7
2016-11-24T11:20:32.147Z,27.6
2016-11-24T11:21:30.410Z,27.6
2016-11-24T11:22:31.696Z,27.5
2016-11-24T11:23:32.223Z,27.5
2016-11-24T11:24:25.498Z,27.5
2016-11-24T11:25:27.506Z,27.5
2016-11-24T11:26:24.659Z,27.4
2016-11-24T11:27:24.762Z,27.4
2016-11-24T11:28:27.796Z,27.5
2016-11-24T11:29:26.338Z,27.6
2016-11-24T11:30:31.681Z,27.8
2016-11-24T11:31:27.888Z,28
2016-11-24T11:32:33.029Z,28.2
2016-11-24T11:33:26.007Z,28.4
2016-11-24T11:34:32.654Z,28.5
2016-11-24T11:35:32.888Z,28.7
2016-11-24T11:36:34.231Z,28.9
2016-11-24T11:37:33.229Z,29
2016-11-24T11:38:29.036Z,29.1
2016-11-24T11:39:33.352Z,29.3
2016-11-24T11:40:26.904Z,29.4
2016-11-24T11:41:31.607Z,29.6
2016-11-24T11:42:30.912Z,29.7
2016-11-24T11:43:26.377Z,29.8
2016-11-24T11:44:26.346Z,29.9
2016-11-24T11:45:30.498Z,30
2016-11-24T11:46:31.839Z,30
2016-11-24T11:47:32.447Z,30
2016-11-24T11:48:27.260Z,30.1
2016-11-24T11:49:33.528Z,30.1
2016-11-24T11:50:28.596Z,30.1
2016-11-24T11:51:32.063Z,30.2
2016-11-24T11:52:26.156Z,30.2
2016-11-24T11:53:26.983Z,30.2
2016-11-24T11:54:29.431Z,30.3
2016-11-24T11:55:34.377Z,30.3
2016-11-24T11:56:26.583Z,30.3
2016-11-24T11:57:35.637Z,30.3
2016-11-24T11:58:33.386Z,30.3
2016-11-24T11:59:33.426Z,30.4
2016-11-24T12:00:34.057Z,30.4
2016-11-24T12:01:38.160Z,30.5
2016-11-24T12:02:32.921Z,30.5
2016-11-24T12:03:35.401Z,30.5
2016-11-24T12:04:33.394Z,30.4
2016-11-24T12:05:30.611Z,30.4
2016-11-24T12:06:27.424Z,30.4
2016-11-24T12:07:34.629Z,30.4
2016-11-24T12:08:27.332Z,30.4
2016-11-24T12:09:34.392Z,30.3
2016-11-24T12:10:28.125Z,30.3
2016-11-24T12:11:28.220Z,30.4
2016-11-24T12:12:34.571Z,30.4
2016-11-24T12:13:30.020Z,30.4
2016-11-24T12:14:34.612Z,30.4
2016-11-24T12:15:27.586Z,30.4
2016-11-24T12:16:33.598Z,30.4
2016-11-24T12:17:32.898Z,30.5
2016-11-24T12:18:29.769Z,30.5
2016-11-24T12:19:27.764Z,30.5
2016-11-24T12:20:27.755Z,30.6
2016-11-24T12:21:29.008Z,30.6
2016-11-24T12:22:28.043Z,30.7
2016-11-24T12:23:29.844Z,30.7
2016-11-24T12:24:30.004Z,30.8
2016-11-24T12:25:33.609Z,30.8
2016-11-24T12:26:28.697Z,30.8
2016-11-24T12:27:34.175Z,30.8
2016-11-24T12:28:28.439Z,30.8
2016-11-24T12:29:31.397Z,30.7
2016-11-24T12:30:29.500Z,30.6
2016-11-24T12:31:28.449Z,30.4
2016-11-24T12:32:33.206Z,30.1
2016-11-24T12:33:33.934Z,30
2016-11-24T12:34:33.224Z,29.9
2016-11-24T12:35:29.943Z,29.8
2016-11-24T12:36:29.840Z,29.8
2016-11-24T12:37:30.151Z,29.7
2016-11-24T12:38:33.481Z,29.6
2016-11-24T12:39:33.499Z,29.6
2016-11-24T12:40:28.424Z,29.5
2016-11-24T12:41:30.493Z,29.5
2016-11-24T12:42:33.870Z,29.4
2016-11-24T12:43:33.902Z,29.3
2016-11-24T12:44:35.010Z,29.2
2016-11-24T12:45:29.167Z,29
2016-11-24T12:46:35.431Z,28.9
2016-11-24T12:47:36.647Z,28.9
2016-11-24T12:48:35.255Z,28.8
2016-11-24T12:49:35.392Z,28.7
2016-11-24T12:50:28.839Z,28.6
2016-11-24T12:51:35.898Z,28.6
2016-11-24T12:52:34.830Z,28.7
2016-11-24T12:53:29.610Z,28.7
2016-11-24T12:54:38.320Z,28.8
2016-11-24T12:55:35.767Z,28.9
2016-11-24T12:56:29.559Z,29
2016-11-24T12:57:35.351Z,29.1
2016-11-24T12:58:29.740Z,29.1
2016-11-24T12:59:29.981Z,29
2016-11-24T13:00:34.667Z,28.9
2016-11-24T13:01:30.145Z,28.9
2016-11-24T13:02:31.906Z,29
2016-11-24T13:03:41.248Z,29.1
2016-11-24T13:04:32.321Z,29.1
2016-11-24T13:05:31.835Z,29.1
2016-11-24T13:06:31.795Z,29.1
2016-11-24T13:07:32.168Z,29.2
2016-11-24T13:08:30.274Z,29.2
2016-11-24T13:09:29.597Z,29.1
2016-11-24T13:10:39.744Z,29.1
2016-11-24T13:11:39.738Z,29
2016-11-24T13:12:35.139Z,29
2016-11-24T13:13:31.410Z,29
2016-11-24T13:14:37.530Z,29
2016-11-24T13:15:39.265Z,29
2016-11-24T13:16:42.093Z,28.9
2016-11-24T13:17:41.437Z,28.8
2016-11-24T13:18:35.389Z,28.8
2016-11-24T13:19:37.751Z,28.7
2016-11-24T13:20:35.564Z,28.6
2016-11-24T13:21:39.241Z,28.6
2016-11-24T13:22:34.320Z,28.6
2016-11-24T13:23:33.687Z,28.6
2016-11-24T13:24:38.025Z,28.7
2016-11-24T13:25:33.785Z,28.7
2016-11-24T13:26:33.441Z,28.8
2016-11-24T13:27:33.727Z,28.8
2016-11-24T13:28:37.847Z,28.8
2016-11-24T13:29:32.600Z,28.8
2016-11-24T13:30:37.154Z,28.8
2016-11-24T13:31:40.313Z,28.9
2016-11-24T13:32:31.251Z,28.9
2016-11-24T13:33:38.851Z,29
2016-11-24T13:34:30.740Z,29.1
2016-11-24T13:35:31.438Z,29.3